createdAt,value
2022-09-30T00:01:57.390Z,6.40
2022-09-30T00:04:26.591Z,6.23
2022-09-30T00:06:56.307Z,5.43
2022-09-30T00:09:24.961Z,5.23
2022-09-30T00:11:53.407Z,4.40
2022-09-30T00:14:23.286Z,5.23
2022-09-30T00:16:53.828Z,6.53
2022-09-30T00:19:22.934Z,5.07
2022-09-30T00:21:51.868Z,8.47
2022-09-30T00:24:20.087Z,5.93
2022-09-30T00:26:48.331Z,5.27
2022-09-30T00:29:16.483Z,8.97
2022-09-30T00:31:44.742Z,8.97
2022-09-30T00:34:14.793Z,6.23
2022-09-30T00:36:45.528Z,8.80
2022-09-30T00:39:17.344Z,6.53
2022-09-30T00:41:49.416Z,5.77
2022-09-30T00:44:57.384Z,7.63
2022-09-30T00:47:46.561Z,6.07
2022-09-30T00:50:39.317Z,7.70
2022-09-30T00:53:13.668Z,6.20
2022-09-30T00:55:51.781Z,5.40
2022-09-30T00:58:27.536Z,6.60
2022-09-30T01:00:56.645Z,5.57
2022-09-30T01:03:25.657Z,6.83
2022-09-30T01:05:55.836Z,5.97
2022-09-30T01:08:25.954Z,6.43
2022-09-30T01:10:54.397Z,5.23
2022-09-30T01:13:27.552Z,5.27
2022-09-30T01:16:21.563Z,9.73
2022-09-30T01:19:00.114Z,6.53
2022-09-30T01:22:07.811Z,6.17
2022-09-30T01:25:06.209Z,5.17
2022-09-30T01:28:07.852Z,5.90
2022-09-30T01:31:03.411Z,5.73
2022-09-30T01:33:43.784Z,7.13
2022-09-30T01:36:26.472Z,7.50
2022-09-30T01:39:11.606Z,5.03
2022-09-30T01:41:46.504Z,4.23
2022-09-30T01:44:20.849Z,6.13
2022-09-30T01:46:56.709Z,5.50
2022-09-30T01:49:33.348Z,6.30
2022-09-30T01:52:10.476Z,6.03
2022-09-30T01:54:44.991Z,7.17
2022-09-30T01:57:19.985Z,4.80
2022-09-30T01:59:55.054Z,8.00
2022-09-30T02:02:29.142Z,7.20
2022-09-30T02:05:02.593Z,7.13
2022-09-30T02:07:39.167Z,15.70
2022-09-30T02:10:15.789Z,20.33
2022-09-30T02:12:48.895Z,13.70
2022-09-30T02:15:22.833Z,13.93
2022-09-30T02:17:58.546Z,9.97
2022-09-30T02:20:33.362Z,18.97
2022-09-30T02:23:08.104Z,13.43
2022-09-30T02:25:43.099Z,24.43
2022-09-30T02:28:18.326Z,11.10
2022-09-30T02:30:50.916Z,10.83
2022-09-30T02:33:25.707Z,13.67
2022-09-30T02:35:57.816Z,21.00
2022-09-30T02:38:32.051Z,25.43
2022-09-30T02:41:06.703Z,17.57
2022-09-30T02:43:36.299Z,15.30
2022-09-30T02:46:09.977Z,23.03
2022-09-30T02:48:46.893Z,20.10
2022-09-30T02:51:21.456Z,18.00
2022-09-30T02:53:58.494Z,10.00
2022-09-30T02:56:35.637Z,18.70
2022-09-30T02:59:03.758Z,16.17
2022-09-30T03:01:32.785Z,18.40
2022-09-30T03:04:07.531Z,11.17
2022-09-30T03:06:37.665Z,5.73
2022-09-30T03:09:06.850Z,15.57
2022-09-30T03:11:36.290Z,5.63
2022-09-30T03:14:33.199Z,6.57
2022-09-30T03:17:31.838Z,8.00
2022-09-30T03:20:17.422Z,5.67
2022-09-30T03:23:07.354Z,6.37
2022-09-30T03:25:49.424Z,5.97
2022-09-30T03:28:26.496Z,6.30
2022-09-30T03:31:05.740Z,6.27
2022-09-30T03:33:46.623Z,6.97
2022-09-30T03:36:25.591Z,6.40
2022-09-30T03:39:03.145Z,6.43
2022-09-30T03:41:38.484Z,6.77
2022-09-30T03:44:13.510Z,6.37
2022-09-30T03:46:45.759Z,6.63
2022-09-30T03:49:20.417Z,5.60
2022-09-30T03:51:51.148Z,6.17
2022-09-30T03:54:23.182Z,6.67
2022-09-30T03:56:52.354Z,6.20
2022-09-30T03:59:25.782Z,11.17
2022-09-30T04:01:54.450Z,8.30
2022-09-30T04:04:24.317Z,39.57
2022-09-30T04:06:54.737Z,33.13
2022-09-30T04:09:23.902Z,22.23
2022-09-30T04:11:52.769Z,33.10
2022-09-30T04:14:21.386Z,33.60
2022-09-30T04:16:53.792Z,71.20
2022-09-30T04:19:22.456Z,67.27
2022-09-30T04:21:54.325Z,50.07
2022-09-30T04:24:26.836Z,35.77
2022-09-30T04:26:55.351Z,39.10
2022-09-30T04:29:24.039Z,34.07
2022-09-30T04:31:52.955Z,28.57
2022-09-30T04:34:21.797Z,25.93
2022-09-30T04:36:50.155Z,49.03
2022-09-30T04:39:20.193Z,34.00
2022-09-30T04:41:48.334Z,27.60
2022-09-30T04:44:18.285Z,48.80
2022-09-30T04:46:46.811Z,28.40
2022-09-30T04:49:15.647Z,42.93
2022-09-30T04:51:46.313Z,39.73
2022-09-30T04:54:16.727Z,48.63
2022-09-30T04:56:46.816Z,46.07
2022-09-30T04:59:15.131Z,37.37
2022-09-30T05:01:44.755Z,42.27
2022-09-30T05:04:13.763Z,26.63
2022-09-30T05:06:42.732Z,56.90
2022-09-30T05:09:11.002Z,66.90
2022-09-30T05:11:42.530Z,47.57
2022-09-30T05:14:14.692Z,41.10
2022-09-30T05:16:44.297Z,26.07
2022-09-30T05:19:12.664Z,46.83
2022-09-30T05:21:45.160Z,38.97
2022-09-30T05:24:15.485Z,38.87
2022-09-30T05:26:47.596Z,14.57
2022-09-30T05:29:20.206Z,21.80
2022-09-30T05:31:48.744Z,11.43
2022-09-30T05:34:20.033Z,109.50
2022-09-30T05:36:48.667Z,47.30
2022-09-30T05:39:19.908Z,42.57
2022-09-30T05:41:49.524Z,54.00
2022-09-30T05:44:19.822Z,23.40
2022-09-30T05:46:48.229Z,43.33
2022-09-30T05:49:17.598Z,22.93
2022-09-30T05:51:46.750Z,12.23
2022-09-30T05:54:16.284Z,50.73
2022-09-30T05:56:44.737Z,38.67
2022-09-30T05:59:13.557Z,27.07
2022-09-30T06:01:43.814Z,14.20
2022-09-30T06:04:12.532Z,27.20
2022-09-30T06:06:41.140Z,22.27
2022-09-30T06:09:09.454Z,21.47
2022-09-30T06:11:37.952Z,20.20
2022-09-30T06:14:06.635Z,7.93
2022-09-30T06:16:34.844Z,24.43
2022-09-30T06:19:06.349Z,12.70
2022-09-30T06:21:37.340Z,74.67
2022-09-30T06:24:09.649Z,29.37
2022-09-30T06:26:39.343Z,33.27
2022-09-30T06:29:07.544Z,22.33
2022-09-30T06:31:36.729Z,8.20
2022-09-30T06:34:09.435Z,14.30
2022-09-30T06:36:40.292Z,12.07
2022-09-30T06:39:12.909Z,20.37
2022-09-30T06:41:44.279Z,28.00
2022-09-30T06:44:14.727Z,66.07
2022-09-30T06:46:53.221Z,54.67
2022-09-30T06:49:23.999Z,23.63
2022-09-30T06:51:53.347Z,40.93
2022-09-30T06:54:24.412Z,37.63
2022-09-30T06:56:54.022Z,17.03
2022-09-30T06:59:23.074Z,78.87
2022-09-30T07:01:51.460Z,30.30
2022-09-30T07:04:20.327Z,52.87
2022-09-30T07:06:50.500Z,76.30
2022-09-30T07:09:19.279Z,13.97
2022-09-30T07:11:48.954Z,38.30
2022-09-30T07:14:17.035Z,37.60
2022-09-30T07:16:46.779Z,11.47
2022-09-30T07:19:17.828Z,40.53
2022-09-30T07:21:46.068Z,9.93
2022-09-30T07:24:15.623Z,58.87
2022-09-30T07:26:45.632Z,72.57
2022-09-30T07:29:14.674Z,67.93
2022-09-30T07:31:42.942Z,17.63
2022-09-30T07:34:11.475Z,18.53
2022-09-30T07:36:42.000Z,14.60
2022-09-30T07:39:12.606Z,28.37
2022-09-30T07:41:45.338Z,8.00
2022-09-30T07:44:16.292Z,26.40
2022-09-30T07:46:45.852Z,13.17
2022-09-30T07:49:25.055Z,25.30
2022-09-30T07:51:55.814Z,26.70
2022-09-30T07:54:27.904Z,14.90
2022-09-30T07:57:09.738Z,15.93
2022-09-30T07:59:47.989Z,9.73
2022-09-30T08:02:19.249Z,14.90
2022-09-30T08:04:48.118Z,7.83
2022-09-30T08:07:19.132Z,9.47
2022-09-30T08:09:47.843Z,9.27
2022-09-30T08:12:18.269Z,10.20
2022-09-30T08:14:47.040Z,9.90
2022-09-30T08:17:16.742Z,8.20
2022-09-30T08:19:45.460Z,7.60
2022-09-30T08:22:15.113Z,11.93
2022-09-30T08:24:43.799Z,7.77
2022-09-30T08:27:13.943Z,8.93
2022-09-30T08:30:04.274Z,7.70
2022-09-30T08:32:32.992Z,11.60
2022-09-30T08:35:01.175Z,8.00
2022-09-30T08:37:32.369Z,8.10
2022-09-30T08:40:01.467Z,7.90
2022-09-30T08:42:43.702Z,9.53
2022-09-30T08:45:24.296Z,10.53
2022-09-30T08:48:01.886Z,8.20
2022-09-30T08:50:36.322Z,9.90
2022-09-30T08:53:10.334Z,7.53
2022-09-30T08:55:44.495Z,8.43
2022-09-30T08:58:23.553Z,8.30
2022-09-30T09:00:59.194Z,8.03
2022-09-30T09:03:31.391Z,9.70
2022-09-30T09:06:14.468Z,8.17
2022-09-30T09:08:55.024Z,9.17
2022-09-30T09:11:43.595Z,9.70
2022-09-30T09:14:26.355Z,7.63
2022-09-30T09:17:09.644Z,9.07
2022-09-30T09:19:49.040Z,14.20
2022-09-30T09:22:24.511Z,8.70
2022-09-30T09:24:54.916Z,7.23
2022-09-30T09:27:32.069Z,8.07
2022-09-30T09:30:07.699Z,8.23
2022-09-30T09:32:40.667Z,9.03
2022-09-30T09:35:16.892Z,8.17
2022-09-30T09:38:14.670Z,7.90
2022-09-30T09:40:57.815Z,7.93
2022-09-30T09:43:37.633Z,8.97
2022-09-30T09:46:16.938Z,8.17
2022-09-30T09:48:51.120Z,8.30
2022-09-30T09:51:27.926Z,8.73
2022-09-30T09:54:00.492Z,7.47
2022-09-30T09:56:32.573Z,9.30
2022-09-30T09:59:10.945Z,9.57
2022-09-30T10:01:42.628Z,7.70
2022-09-30T10:04:27.469Z,8.17
2022-09-30T10:07:00.234Z,6.07
2022-09-30T10:09:34.248Z,7.27
2022-09-30T10:12:30.387Z,7.03
2022-09-30T10:15:03.271Z,8.50
2022-09-30T10:17:34.658Z,9.67
2022-09-30T10:20:08.325Z,10.27
2022-09-30T10:22:38.784Z,7.43
2022-09-30T10:25:25.648Z,7.97
2022-09-30T10:27:58.958Z,8.70
2022-09-30T10:30:43.093Z,8.13
2022-09-30T10:33:22.396Z,9.53
2022-09-30T10:35:56.561Z,7.27
2022-09-30T10:38:29.509Z,7.10
2022-09-30T10:41:01.259Z,9.97
2022-09-30T10:43:34.764Z,8.60
2022-09-30T10:46:26.272Z,9.40
2022-09-30T10:48:56.573Z,9.53
2022-09-30T10:51:35.157Z,8.37
2022-09-30T10:54:04.571Z,8.70
2022-09-30T10:56:53.525Z,10.83
2022-09-30T10:59:35.059Z,9.80
2022-09-30T11:04:56.626Z,9.20
2022-09-30T11:07:33.877Z,7.93
2022-09-30T11:10:08.571Z,11.23
2022-09-30T11:12:45.979Z,9.20
2022-09-30T11:15:20.474Z,7.90
2022-09-30T11:17:56.550Z,11.10
2022-09-30T11:20:31.773Z,9.93
2022-09-30T11:23:11.608Z,11.33
2022-09-30T11:25:49.429Z,8.77
2022-09-30T11:28:37.881Z,9.37
2022-09-30T11:31:15.226Z,8.73
2022-09-30T11:33:57.629Z,7.33
2022-09-30T11:36:32.113Z,7.70
2022-09-30T11:39:19.076Z,7.27
2022-09-30T11:41:56.178Z,9.57
2022-09-30T11:44:35.350Z,10.67
2022-09-30T11:47:27.849Z,7.10
2022-09-30T11:50:10.203Z,13.23
2022-09-30T11:52:50.204Z,6.83
2022-09-30T11:55:57.814Z,5.23
2022-09-30T11:58:47.588Z,6.00
2022-09-30T12:01:24.881Z,6.70
2022-09-30T12:04:07.039Z,6.37
2022-09-30T12:06:44.440Z,4.73
2022-09-30T12:09:24.227Z,6.70
2022-09-30T12:12:01.371Z,5.20
2022-09-30T12:14:38.156Z,4.53
2022-09-30T12:17:12.157Z,3.80
2022-09-30T12:19:46.335Z,5.37
2022-09-30T12:22:20.032Z,7.20
2022-09-30T12:24:48.456Z,3.63
2022-09-30T12:27:25.603Z,4.37
2022-09-30T12:30:18.193Z,5.93
2022-09-30T12:33:12.442Z,5.57
2022-09-30T12:36:01.239Z,6.00
2022-09-30T12:38:43.478Z,6.80
2022-09-30T12:41:28.510Z,5.47
2022-09-30T12:44:33.707Z,6.20
2022-09-30T12:47:17.096Z,4.93
2022-09-30T12:49:47.274Z,3.87
2022-09-30T12:52:24.387Z,7.43
2022-09-30T12:55:02.688Z,6.77
2022-09-30T12:57:37.579Z,6.93
2022-09-30T13:00:17.067Z,4.70
2022-09-30T13:02:49.189Z,6.27
2022-09-30T13:05:59.532Z,6.37
2022-09-30T13:09:17.668Z,8.10
2022-09-30T13:11:47.718Z,7.00
2022-09-30T13:14:35.051Z,6.10
2022-09-30T13:17:28.426Z,4.53
2022-09-30T13:19:58.505Z,7.27
2022-09-30T13:23:00.077Z,5.87
2022-09-30T13:25:29.059Z,5.07
2022-09-30T13:28:32.400Z,6.80
2022-09-30T13:31:16.207Z,7.17
2022-09-30T13:33:48.681Z,7.10
2022-09-30T13:36:28.743Z,7.50
2022-09-30T13:39:21.167Z,5.60
2022-09-30T13:42:00.225Z,8.17
2022-09-30T13:44:40.136Z,6.33
2022-09-30T13:47:19.529Z,5.80
2022-09-30T13:49:58.196Z,5.67
2022-09-30T13:52:29.807Z,5.50
2022-09-30T13:55:03.346Z,4.50
2022-09-30T13:57:46.029Z,6.10
2022-09-30T14:00:21.023Z,6.53
2022-09-30T14:03:16.989Z,8.23
2022-09-30T14:06:00.678Z,6.37
2022-09-30T14:09:00.755Z,5.07
2022-09-30T14:11:42.701Z,6.43
2022-09-30T14:14:51.950Z,4.67
2022-09-30T14:17:47.636Z,5.17
2022-09-30T14:20:40.030Z,4.50
2022-09-30T14:23:19.007Z,4.77
2022-09-30T14:25:58.748Z,4.93
2022-09-30T14:28:40.221Z,7.13
2022-09-30T14:31:15.606Z,7.53
2022-09-30T14:33:50.221Z,5.13
2022-09-30T14:36:22.013Z,5.27
2022-09-30T14:38:59.458Z,3.30
2022-09-30T14:41:32.027Z,4.70
2022-09-30T14:44:06.326Z,4.20
2022-09-30T14:46:41.415Z,5.17
2022-09-30T14:49:16.832Z,3.80
2022-09-30T14:51:49.163Z,7.00
2022-09-30T14:54:29.272Z,5.27
2022-09-30T14:57:01.475Z,3.50
2022-09-30T14:59:33.320Z,6.13
2022-09-30T15:02:04.391Z,3.63
2022-09-30T15:04:39.221Z,5.73
2022-09-30T15:07:12.948Z,4.43
2022-09-30T15:09:44.647Z,3.50
2022-09-30T15:12:15.248Z,3.90
2022-09-30T15:14:51.872Z,5.97
2022-09-30T15:17:21.542Z,4.80
2022-09-30T15:19:50.423Z,4.20
2022-09-30T15:22:20.989Z,4.50
2022-09-30T15:24:54.431Z,3.40
2022-09-30T15:27:25.784Z,3.20
2022-09-30T15:30:02.823Z,5.20
2022-09-30T15:32:32.952Z,2.53
2022-09-30T15:35:07.410Z,5.83
2022-09-30T15:37:36.899Z,2.83
2022-09-30T15:40:34.585Z,3.33
2022-09-30T15:43:08.709Z,4.97
2022-09-30T15:45:39.654Z,6.27
2022-09-30T15:48:29.334Z,2.37
2022-09-30T15:51:01.892Z,2.57
2022-09-30T15:53:33.626Z,5.97
2022-09-30T15:56:18.867Z,3.40
2022-09-30T15:58:57.305Z,3.10
2022-09-30T16:01:28.386Z,2.47
2022-09-30T16:03:59.205Z,5.00
2022-09-30T16:06:32.982Z,4.43
2022-09-30T16:09:04.043Z,1.63
2022-09-30T16:11:38.837Z,4.40
2022-09-30T16:14:11.341Z,2.40
2022-09-30T16:16:44.045Z,2.37
2022-09-30T16:19:19.943Z,4.03
2022-09-30T16:21:52.134Z,2.83
2022-09-30T16:24:47.491Z,1.93
2022-09-30T16:27:35.274Z,3.77
2022-09-30T16:30:08.007Z,1.97
2022-09-30T16:32:46.633Z,1.77
2022-09-30T16:35:20.779Z,4.00
2022-09-30T16:37:51.069Z,3.90
2022-09-30T16:40:25.470Z,1.97
2022-09-30T16:42:56.893Z,8.93
2022-09-30T16:45:41.331Z,2.57
2022-09-30T16:48:16.960Z,2.90
2022-09-30T16:50:49.864Z,4.20
2022-09-30T16:53:17.949Z,4.67
2022-09-30T16:55:48.257Z,7.77
2022-09-30T16:58:20.098Z,8.67
2022-09-30T17:00:51.831Z,7.13
2022-09-30T17:03:22.947Z,14.87
2022-09-30T17:05:52.781Z,7.13
2022-09-30T17:08:23.581Z,5.10
2022-09-30T17:10:51.940Z,6.80
2022-09-30T17:13:21.612Z,4.60
2022-09-30T17:15:51.029Z,4.27
2022-09-30T17:18:19.700Z,4.30
2022-09-30T17:20:53.133Z,4.03
2022-09-30T17:23:24.297Z,8.37
2022-09-30T17:25:54.035Z,25.67
2022-09-30T17:28:23.804Z,16.83
2022-09-30T17:30:53.672Z,11.60
2022-09-30T17:33:22.023Z,4.87
2022-09-30T17:35:59.696Z,5.77
2022-09-30T17:38:32.550Z,5.07
2022-09-30T17:41:18.911Z,4.60
2022-09-30T17:43:49.034Z,13.17
2022-09-30T17:46:21.360Z,20.30
2022-09-30T17:48:50.258Z,5.80
2022-09-30T17:51:20.287Z,3.30
2022-09-30T17:53:51.237Z,4.80
2022-09-30T17:56:22.724Z,2.83
2022-09-30T17:58:53.958Z,3.33
2022-09-30T18:01:23.011Z,3.10
2022-09-30T18:03:53.157Z,2.57
2022-09-30T18:06:22.411Z,3.13
2022-09-30T18:08:54.135Z,5.50
2022-09-30T18:11:25.173Z,2.97
2022-09-30T18:14:02.799Z,3.73
2022-09-30T18:16:36.378Z,2.03
2022-09-30T18:19:07.343Z,4.30
2022-09-30T18:21:37.951Z,3.80
2022-09-30T18:24:09.491Z,3.10
2022-09-30T18:26:39.186Z,5.73
2022-09-30T18:29:10.248Z,11.70
2022-09-30T18:31:40.324Z,22.70
2022-09-30T18:34:09.536Z,67.90
2022-09-30T18:36:38.832Z,35.30
2022-09-30T18:39:15.128Z,34.03
2022-09-30T18:41:46.907Z,83.10
2022-09-30T18:44:20.172Z,82.00
2022-09-30T18:46:49.368Z,75.20
2022-09-30T18:49:18.328Z,62.87
2022-09-30T18:51:48.208Z,51.20
2022-09-30T18:54:16.950Z,44.63
2022-09-30T18:56:52.134Z,12.50
2022-09-30T18:59:24.592Z,10.40
2022-09-30T19:01:54.893Z,28.20
2022-09-30T19:04:26.217Z,18.93
2022-09-30T19:06:55.234Z,58.00
2022-09-30T19:09:28.505Z,60.83
2022-09-30T19:12:00.373Z,41.03
2022-09-30T19:14:31.948Z,44.20
2022-09-30T19:17:03.195Z,89.27
2022-09-30T19:19:38.877Z,65.47
2022-09-30T19:22:12.356Z,50.00
2022-09-30T19:24:45.609Z,111.00
2022-09-30T19:27:16.786Z,111.60
2022-09-30T19:29:50.099Z,25.67
2022-09-30T19:32:23.849Z,11.93
2022-09-30T19:35:06.046Z,12.57
2022-09-30T19:37:37.235Z,15.43
2022-09-30T19:40:20.642Z,9.97
2022-09-30T19:42:52.332Z,28.93
2022-09-30T19:45:26.031Z,11.20
2022-09-30T19:47:57.284Z,18.47
2022-09-30T19:50:28.807Z,7.67
2022-09-30T19:52:57.938Z,6.17
2022-09-30T19:55:29.668Z,5.57
2022-09-30T19:58:00.331Z,13.67
2022-09-30T20:00:33.581Z,68.50
2022-09-30T20:03:04.056Z,12.47
2022-09-30T20:05:33.838Z,52.20
2022-09-30T20:08:03.589Z,14.53
2022-09-30T20:10:34.951Z,14.80
2022-09-30T20:13:04.247Z,15.73
2022-09-30T20:15:54.586Z,9.83
2022-09-30T20:18:24.984Z,11.07
2022-09-30T20:20:55.697Z,9.13
2022-09-30T20:23:28.040Z,5.27
2022-09-30T20:25:57.081Z,7.00
2022-09-30T20:28:25.280Z,6.53
2022-09-30T20:30:57.785Z,6.43
2022-09-30T20:33:26.152Z,6.93
2022-09-30T20:35:55.238Z,6.90
2022-09-30T20:38:27.926Z,9.50
2022-09-30T20:40:58.768Z,7.10
2022-09-30T20:43:30.792Z,6.70
2022-09-30T20:46:02.892Z,6.60
2022-09-30T20:48:33.823Z,8.27
2022-09-30T20:51:02.495Z,7.00
2022-09-30T20:53:31.100Z,6.63
2022-09-30T20:56:02.072Z,6.20
2022-09-30T20:58:30.146Z,5.10
2022-09-30T21:01:05.944Z,6.00
2022-09-30T21:03:36.722Z,6.13
2022-09-30T21:06:05.412Z,8.10
2022-09-30T21:08:34.217Z,6.17
2022-09-30T21:11:03.944Z,7.23
2022-09-30T21:13:32.917Z,5.00
2022-09-30T21:16:04.231Z,5.73
2022-09-30T21:18:33.638Z,8.50
2022-09-30T21:21:03.789Z,5.13
2022-09-30T21:23:33.741Z,4.33
2022-09-30T21:26:03.738Z,5.13
2022-09-30T21:28:32.622Z,5.53
2022-09-30T21:31:15.899Z,6.90
2022-09-30T21:33:45.011Z,7.43
2022-09-30T21:36:13.533Z,7.33
2022-09-30T21:38:42.521Z,7.73
2022-09-30T21:41:10.844Z,8.63
2022-09-30T21:43:39.702Z,9.83
2022-09-30T21:46:17.430Z,7.53
2022-09-30T21:48:47.001Z,6.33
2022-09-30T21:51:16.407Z,7.40
2022-09-30T21:53:45.108Z,9.47
2022-09-30T21:56:14.626Z,6.60
2022-09-30T21:58:43.811Z,7.73
2022-09-30T22:01:14.396Z,7.23
2022-09-30T22:03:44.705Z,11.87
2022-09-30T22:06:14.553Z,10.67
2022-09-30T22:08:44.099Z,9.97
2022-09-30T22:11:15.391Z,10.67
2022-09-30T22:13:45.371Z,13.53
2022-09-30T22:16:20.037Z,12.30
2022-09-30T22:18:48.716Z,13.57
2022-09-30T22:21:17.765Z,11.53
2022-09-30T22:23:48.604Z,10.70
2022-09-30T22:26:18.938Z,11.60
2022-09-30T22:28:48.554Z,14.00
2022-09-30T22:31:24.059Z,12.43
2022-09-30T22:34:12.443Z,13.77
2022-09-30T22:36:58.538Z,14.73
2022-09-30T22:39:29.307Z,14.97
2022-09-30T22:41:59.178Z,13.07
2022-09-30T22:44:29.361Z,12.07
2022-09-30T22:47:00.952Z,15.00
2022-09-30T22:49:32.690Z,14.30
2022-09-30T22:52:02.076Z,13.20
2022-09-30T22:54:32.316Z,13.87
2022-09-30T22:57:00.562Z,11.13
2022-09-30T22:59:30.674Z,12.27
2022-09-30T23:02:05.194Z,13.73
2022-09-30T23:04:33.884Z,12.67
2022-09-30T23:09:47.878Z,12.17
2022-09-30T23:12:19.017Z,13.63
2022-09-30T23:14:48.009Z,11.73
2022-09-30T23:17:18.245Z,12.67
2022-09-30T23:19:46.790Z,12.80
2022-09-30T23:22:16.054Z,14.93
2022-09-30T23:24:45.965Z,12.40
2022-09-30T23:27:17.593Z,11.93
2022-09-30T23:29:46.133Z,11.37
2022-09-30T23:32:16.798Z,10.30
2022-09-30T23:34:46.932Z,12.50
2022-09-30T23:37:16.208Z,13.63
2022-09-30T23:39:45.435Z,13.47
2022-09-30T23:42:14.059Z,12.97
2022-09-30T23:44:43.497Z,13.90
2022-09-30T23:47:21.703Z,10.83
2022-09-30T23:49:52.163Z,13.60
2022-09-30T23:52:21.871Z,12.20
2022-09-30T23:54:50.631Z,12.77
2022-09-30T23:57:19.012Z,16.20
2022-09-30T23:59:47.397Z,14.90
